sensor_id;sensor_type;location;lat;lon;timestamp;P1;durP1;ratioP1;P2;durP2;ratioP2
78670;SDS011;68277;52.724;6.516;2023-05-23T00:00:41;13.73;;;6.45;;
78670;SDS011;68277;52.724;6.516;2023-05-23T00:03:06;16.88;;;6.97;;
78670;SDS011;68277;52.724;6.516;2023-05-23T00:05:32;13.93;;;6.78;;
78670;SDS011;68277;52.724;6.516;2023-05-23T00:07:59;20.15;;;7.68;;
78670;SDS011;68277;52.724;6.516;2023-05-23T00:10:25;11.27;;;5.38;;
78670;SDS011;68277;52.724;6.516;2023-05-23T00:12:53;11.50;;;4.88;;
78670;SDS011;68277;52.724;6.516;2023-05-23T00:15:18;14.20;;;5.70;;
78670;SDS011;68277;52.724;6.516;2023-05-23T00:17:44;12.68;;;5.38;;
78670;SDS011;68277;52.724;6.516;2023-05-23T00:20:09;13.95;;;7.38;;
78670;SDS011;68277;52.724;6.516;2023-05-23T00:25:05;10.68;;;5.07;;
78670;SDS011;68277;52.724;6.516;2023-05-23T00:27:31;15.60;;;6.55;;
78670;SDS011;68277;52.724;6.516;2023-05-23T00:29:56;9.05;;;5.20;;
78670;SDS011;68277;52.724;6.516;2023-05-23T00:32:22;12.82;;;5.43;;
78670;SDS011;68277;52.724;6.516;2023-05-23T00:34:49;12.73;;;5.43;;
78670;SDS011;68277;52.724;6.516;2023-05-23T00:37:18;13.77;;;5.43;;
78670;SDS011;68277;52.724;6.516;2023-05-23T00:39:44;12.07;;;6.45;;
78670;SDS011;68277;52.724;6.516;2023-05-23T00:42:10;13.25;;;5.95;;
78670;SDS011;68277;52.724;6.516;2023-05-23T00:44:36;12.48;;;4.72;;
78670;SDS011;68277;52.724;6.516;2023-05-23T00:47:02;12.70;;;5.80;;
78670;SDS011;68277;52.724;6.516;2023-05-23T00:49:27;12.00;;;5.82;;
78670;SDS011;68277;52.724;6.516;2023-05-23T00:51:54;16.33;;;7.20;;
78670;SDS011;68277;52.724;6.516;2023-05-23T00:54:22;13.05;;;5.43;;
78670;SDS011;68277;52.724;6.516;2023-05-23T00:56:52;17.85;;;7.18;;
78670;SDS011;68277;52.724;6.516;2023-05-23T00:59:25;14.38;;;7.03;;
78670;SDS011;68277;52.724;6.516;2023-05-23T01:01:56;12.90;;;5.85;;
78670;SDS011;68277;52.724;6.516;2023-05-23T01:04:24;15.55;;;6.38;;
78670;SDS011;68277;52.724;6.516;2023-05-23T01:06:53;20.40;;;6.68;;
78670;SDS011;68277;52.724;6.516;2023-05-23T01:09:20;14.23;;;5.55;;
78670;SDS011;68277;52.724;6.516;2023-05-23T01:14:44;9.35;;;4.82;;
78670;SDS011;68277;52.724;6.516;2023-05-23T01:17:18;10.75;;;5.80;;
78670;SDS011;68277;52.724;6.516;2023-05-23T01:19:56;12.43;;;4.30;;
78670;SDS011;68277;52.724;6.516;2023-05-23T01:22:48;19.98;;;6.72;;
78670;SDS011;68277;52.724;6.516;2023-05-23T01:25:27;10.70;;;3.60;;
78670;SDS011;68277;52.724;6.516;2023-05-23T01:28:00;15.95;;;5.60;;
78670;SDS011;68277;52.724;6.516;2023-05-23T01:30:29;9.40;;;5.10;;
78670;SDS011;68277;52.724;6.516;2023-05-23T01:32:59;7.75;;;4.03;;
78670;SDS011;68277;52.724;6.516;2023-05-23T01:35:26;7.50;;;3.38;;
78670;SDS011;68277;52.724;6.516;2023-05-23T01:40:22;8.70;;;4.40;;
78670;SDS011;68277;52.724;6.516;2023-05-23T01:42:50;10.35;;;5.07;;
78670;SDS011;68277;52.724;6.516;2023-05-23T01:45:16;10.45;;;5.63;;
78670;SDS011;68277;52.724;6.516;2023-05-23T01:47:42;8.10;;;3.92;;
78670;SDS011;68277;52.724;6.516;2023-05-23T01:50:10;8.90;;;4.03;;
78670;SDS011;68277;52.724;6.516;2023-05-23T01:52:36;11.25;;;4.00;;
78670;SDS011;68277;52.724;6.516;2023-05-23T01:55:03;8.32;;;4.32;;
78670;SDS011;68277;52.724;6.516;2023-05-23T01:57:34;11.43;;;6.07;;
78670;SDS011;68277;52.724;6.516;2023-05-23T02:00:05;7.72;;;4.13;;
78670;SDS011;68277;52.724;6.516;2023-05-23T02:02:38;12.05;;;5.15;;
78670;SDS011;68277;52.724;6.516;2023-05-23T02:05:04;11.32;;;4.85;;
78670;SDS011;68277;52.724;6.516;2023-05-23T02:07:30;8.73;;;4.20;;
78670;SDS011;68277;52.724;6.516;2023-05-23T02:09:56;15.65;;;6.15;;
78670;SDS011;68277;52.724;6.516;2023-05-23T02:12:27;10.82;;;4.50;;
78670;SDS011;68277;52.724;6.516;2023-05-23T02:14:57;12.77;;;5.10;;
78670;SDS011;68277;52.724;6.516;2023-05-23T02:17:22;15.02;;;6.05;;
78670;SDS011;68277;52.724;6.516;2023-05-23T02:19:48;13.40;;;4.85;;
78670;SDS011;68277;52.724;6.516;2023-05-23T02:22:14;16.48;;;6.78;;
78670;SDS011;68277;52.724;6.516;2023-05-23T02:24:39;17.98;;;5.20;;
78670;SDS011;68277;52.724;6.516;2023-05-23T02:27:05;12.35;;;4.38;;
78670;SDS011;68277;52.724;6.516;2023-05-23T02:29:31;14.40;;;5.97;;
78670;SDS011;68277;52.724;6.516;2023-05-23T02:31:57;10.27;;;4.45;;
78670;SDS011;68277;52.724;6.516;2023-05-23T02:34:26;11.82;;;5.00;;
78670;SDS011;68277;52.724;6.516;2023-05-23T02:36:51;12.95;;;5.63;;
78670;SDS011;68277;52.724;6.516;2023-05-23T02:39:22;10.50;;;4.50;;
78670;SDS011;68277;52.724;6.516;2023-05-23T02:41:48;9.05;;;4.63;;
78670;SDS011;68277;52.724;6.516;2023-05-23T02:44:14;14.35;;;5.60;;
78670;SDS011;68277;52.724;6.516;2023-05-23T02:46:40;16.23;;;5.40;;
78670;SDS011;68277;52.724;6.516;2023-05-23T02:49:05;10.57;;;5.07;;
78670;SDS011;68277;52.724;6.516;2023-05-23T02:51:31;11.10;;;4.68;;
78670;SDS011;68277;52.724;6.516;2023-05-23T02:53:57;9.00;;;3.75;;
78670;SDS011;68277;52.724;6.516;2023-05-23T02:56:23;11.52;;;5.38;;
78670;SDS011;68277;52.724;6.516;2023-05-23T02:58:48;22.42;;;5.45;;
78670;SDS011;68277;52.724;6.516;2023-05-23T03:01:14;12.73;;;5.18;;
78670;SDS011;68277;52.724;6.516;2023-05-23T03:03:40;12.55;;;5.88;;
78670;SDS011;68277;52.724;6.516;2023-05-23T03:06:06;16.75;;;6.15;;
78670;SDS011;68277;52.724;6.516;2023-05-23T03:08:34;12.88;;;4.75;;
78670;SDS011;68277;52.724;6.516;2023-05-23T03:11:00;13.38;;;5.50;;
78670;SDS011;68277;52.724;6.516;2023-05-23T03:13:27;11.38;;;4.35;;
78670;SDS011;68277;52.724;6.516;2023-05-23T03:15:53;9.77;;;4.53;;
78670;SDS011;68277;52.724;6.516;2023-05-23T03:18:18;14.23;;;5.70;;
78670;SDS011;68277;52.724;6.516;2023-05-23T03:20:43;14.25;;;5.65;;
78670;SDS011;68277;52.724;6.516;2023-05-23T03:23:09;11.95;;;4.68;;
78670;SDS011;68277;52.724;6.516;2023-05-23T03:25:34;8.60;;;4.70;;
78670;SDS011;68277;52.724;6.516;2023-05-23T03:28:00;10.95;;;5.22;;
78670;SDS011;68277;52.724;6.516;2023-05-23T03:30:26;16.63;;;4.78;;
78670;SDS011;68277;52.724;6.516;2023-05-23T03:32:51;12.57;;;4.75;;
78670;SDS011;68277;52.724;6.516;2023-05-23T03:35:18;9.27;;;4.18;;
78670;SDS011;68277;52.724;6.516;2023-05-23T03:37:43;20.48;;;5.65;;
78670;SDS011;68277;52.724;6.516;2023-05-23T03:40:09;14.18;;;5.43;;
78670;SDS011;68277;52.724;6.516;2023-05-23T03:42:35;7.68;;;4.38;;
78670;SDS011;68277;52.724;6.516;2023-05-23T03:45:01;9.40;;;4.05;;
78670;SDS011;68277;52.724;6.516;2023-05-23T03:47:26;13.10;;;4.78;;
78670;SDS011;68277;52.724;6.516;2023-05-23T03:49:55;18.63;;;5.95;;
78670;SDS011;68277;52.724;6.516;2023-05-23T03:52:21;15.32;;;4.13;;
78670;SDS011;68277;52.724;6.516;2023-05-23T03:54:49;14.77;;;4.20;;
78670;SDS011;68277;52.724;6.516;2023-05-23T03:57:15;7.60;;;3.58;;
78670;SDS011;68277;52.724;6.516;2023-05-23T03:59:40;10.25;;;4.07;;
78670;SDS011;68277;52.724;6.516;2023-05-23T04:02:09;9.70;;;4.10;;
78670;SDS011;68277;52.724;6.516;2023-05-23T04:04:34;9.63;;;4.13;;
78670;SDS011;68277;52.724;6.516;2023-05-23T04:07:00;7.72;;;3.60;;
78670;SDS011;68277;52.724;6.516;2023-05-23T04:09:26;13.55;;;4.30;;
78670;SDS011;68277;52.724;6.516;2023-05-23T04:11:52;12.70;;;3.65;;
78670;SDS011;68277;52.724;6.516;2023-05-23T04:16:47;7.32;;;3.00;;
78670;SDS011;68277;52.724;6.516;2023-05-23T04:19:13;12.13;;;4.10;;
78670;SDS011;68277;52.724;6.516;2023-05-23T04:21:39;11.35;;;4.07;;
78670;SDS011;68277;52.724;6.516;2023-05-23T04:24:09;13.20;;;3.30;;
78670;SDS011;68277;52.724;6.516;2023-05-23T04:26:35;12.60;;;3.50;;
78670;SDS011;68277;52.724;6.516;2023-05-23T04:29:02;8.82;;;3.70;;
78670;SDS011;68277;52.724;6.516;2023-05-23T04:31:30;10.05;;;4.47;;
78670;SDS011;68277;52.724;6.516;2023-05-23T04:33:55;6.70;;;2.85;;
78670;SDS011;68277;52.724;6.516;2023-05-23T04:38:51;9.90;;;2.95;;
78670;SDS011;68277;52.724;6.516;2023-05-23T04:41:16;9.10;;;2.88;;
78670;SDS011;68277;52.724;6.516;2023-05-23T04:44:14;9.32;;;3.72;;
78670;SDS011;68277;52.724;6.516;2023-05-23T04:47:06;8.95;;;3.28;;
78670;SDS011;68277;52.724;6.516;2023-05-23T04:49:53;9.27;;;2.70;;
78670;SDS011;68277;52.724;6.516;2023-05-23T04:52:19;11.60;;;3.20;;
78670;SDS011;68277;52.724;6.516;2023-05-23T04:54:45;8.27;;;2.92;;
78670;SDS011;68277;52.724;6.516;2023-05-23T04:57:13;9.80;;;3.15;;
78670;SDS011;68277;52.724;6.516;2023-05-23T04:59:39;6.65;;;2.63;;
78670;SDS011;68277;52.724;6.516;2023-05-23T05:02:06;4.63;;;2.20;;
78670;SDS011;68277;52.724;6.516;2023-05-23T05:04:32;7.10;;;2.90;;
78670;SDS011;68277;52.724;6.516;2023-05-23T05:06:59;4.75;;;2.70;;
78670;SDS011;68277;52.724;6.516;2023-05-23T05:09:28;6.32;;;3.33;;
78670;SDS011;68277;52.724;6.516;2023-05-23T05:11:55;4.72;;;2.40;;
78670;SDS011;68277;52.724;6.516;2023-05-23T05:14:20;4.95;;;2.17;;
78670;SDS011;68277;52.724;6.516;2023-05-23T05:16:46;4.90;;;2.80;;
78670;SDS011;68277;52.724;6.516;2023-05-23T05:19:14;5.75;;;2.05;;
78670;SDS011;68277;52.724;6.516;2023-05-23T05:21:40;5.28;;;2.65;;
78670;SDS011;68277;52.724;6.516;2023-05-23T05:24:05;8.75;;;2.50;;
78670;SDS011;68277;52.724;6.516;2023-05-23T05:26:34;14.95;;;3.33;;
78670;SDS011;68277;52.724;6.516;2023-05-23T05:29:00;5.82;;;2.38;;
78670;SDS011;68277;52.724;6.516;2023-05-23T05:31:26;7.68;;;3.83;;
78670;SDS011;68277;52.724;6.516;2023-05-23T05:33:53;10.50;;;3.35;;
78670;SDS011;68277;52.724;6.516;2023-05-23T05:36:20;6.57;;;3.10;;
78670;SDS011;68277;52.724;6.516;2023-05-23T05:38:47;8.02;;;3.25;;
78670;SDS011;68277;52.724;6.516;2023-05-23T05:41:14;13.60;;;3.78;;
78670;SDS011;68277;52.724;6.516;2023-05-23T05:43:45;9.02;;;2.95;;
78670;SDS011;68277;52.724;6.516;2023-05-23T05:46:10;9.85;;;3.00;;
78670;SDS011;68277;52.724;6.516;2023-05-23T05:48:36;13.70;;;3.22;;
78670;SDS011;68277;52.724;6.516;2023-05-23T05:51:05;11.45;;;3.05;;
78670;SDS011;68277;52.724;6.516;2023-05-23T05:53:32;9.75;;;3.13;;
78670;SDS011;68277;52.724;6.516;2023-05-23T05:55:58;10.63;;;3.45;;
78670;SDS011;68277;52.724;6.516;2023-05-23T05:58:24;12.10;;;3.15;;
78670;SDS011;68277;52.724;6.516;2023-05-23T06:01:01;13.05;;;3.15;;
78670;SDS011;68277;52.724;6.516;2023-05-23T06:03:29;8.63;;;3.25;;
78670;SDS011;68277;52.724;6.516;2023-05-23T06:05:56;6.68;;;2.78;;
78670;SDS011;68277;52.724;6.516;2023-05-23T06:08:24;8.80;;;3.20;;
78670;SDS011;68277;52.724;6.516;2023-05-23T06:10:49;7.68;;;2.65;;
78670;SDS011;68277;52.724;6.516;2023-05-23T06:13:15;9.45;;;2.67;;
78670;SDS011;68277;52.724;6.516;2023-05-23T06:15:44;7.50;;;2.67;;
78670;SDS011;68277;52.724;6.516;2023-05-23T06:18:11;10.25;;;3.47;;
78670;SDS011;68277;52.724;6.516;2023-05-23T06:20:37;7.72;;;2.72;;
78670;SDS011;68277;52.724;6.516;2023-05-23T06:23:05;7.63;;;3.08;;
78670;SDS011;68277;52.724;6.516;2023-05-23T06:25:32;6.10;;;2.10;;
78670;SDS011;68277;52.724;6.516;2023-05-23T06:30:32;8.45;;;2.80;;
78670;SDS011;68277;52.724;6.516;2023-05-23T06:33:00;11.88;;;3.05;;
78670;SDS011;68277;52.724;6.516;2023-05-23T06:35:25;10.10;;;3.63;;
78670;SDS011;68277;52.724;6.516;2023-05-23T06:37:51;10.20;;;2.53;;
78670;SDS011;68277;52.724;6.516;2023-05-23T06:40:17;7.55;;;2.00;;
78670;SDS011;68277;52.724;6.516;2023-05-23T06:42:44;13.25;;;3.03;;
78670;SDS011;68277;52.724;6.516;2023-05-23T06:47:46;6.70;;;2.03;;
78670;SDS011;68277;52.724;6.516;2023-05-23T06:52:38;3.80;;;2.13;;
78670;SDS011;68277;52.724;6.516;2023-05-23T06:55:06;4.13;;;1.98;;
78670;SDS011;68277;52.724;6.516;2023-05-23T06:57:39;4.20;;;2.15;;
78670;SDS011;68277;52.724;6.516;2023-05-23T07:00:05;9.93;;;3.33;;
78670;SDS011;68277;52.724;6.516;2023-05-23T07:02:37;6.40;;;2.65;;
78670;SDS011;68277;52.724;6.516;2023-05-23T07:05:04;8.93;;;1.88;;
78670;SDS011;68277;52.724;6.516;2023-05-23T07:07:48;5.40;;;1.83;;
78670;SDS011;68277;52.724;6.516;2023-05-23T07:10:14;6.05;;;2.33;;
78670;SDS011;68277;52.724;6.516;2023-05-23T07:12:40;6.75;;;2.40;;
78670;SDS011;68277;52.724;6.516;2023-05-23T07:15:06;4.50;;;2.15;;
78670;SDS011;68277;52.724;6.516;2023-05-23T07:17:33;6.43;;;3.38;;
78670;SDS011;68277;52.724;6.516;2023-05-23T07:20:00;11.68;;;2.45;;
78670;SDS011;68277;52.724;6.516;2023-05-23T07:22:26;11.02;;;2.20;;
78670;SDS011;68277;52.724;6.516;2023-05-23T07:24:52;7.30;;;2.60;;
78670;SDS011;68277;52.724;6.516;2023-05-23T07:27:20;9.48;;;1.90;;
78670;SDS011;68277;52.724;6.516;2023-05-23T07:29:46;7.13;;;1.75;;
78670;SDS011;68277;52.724;6.516;2023-05-23T07:32:12;8.10;;;1.77;;
78670;SDS011;68277;52.724;6.516;2023-05-23T07:34:37;6.78;;;2.05;;
78670;SDS011;68277;52.724;6.516;2023-05-23T07:37:03;7.85;;;1.98;;
78670;SDS011;68277;52.724;6.516;2023-05-23T07:39:40;6.07;;;2.22;;
78670;SDS011;68277;52.724;6.516;2023-05-23T07:42:06;10.43;;;2.35;;
78670;SDS011;68277;52.724;6.516;2023-05-23T07:44:31;13.07;;;2.00;;
78670;SDS011;68277;52.724;6.516;2023-05-23T07:46:57;8.63;;;2.40;;
78670;SDS011;68277;52.724;6.516;2023-05-23T07:49:23;6.35;;;1.77;;
78670;SDS011;68277;52.724;6.516;2023-05-23T07:51:49;6.85;;;2.05;;
78670;SDS011;68277;52.724;6.516;2023-05-23T07:54:15;6.65;;;1.88;;
78670;SDS011;68277;52.724;6.516;2023-05-23T07:56:41;9.20;;;1.80;;
78670;SDS011;68277;52.724;6.516;2023-05-23T07:59:07;4.30;;;1.88;;
78670;SDS011;68277;52.724;6.516;2023-05-23T08:01:33;7.18;;;2.42;;
78670;SDS011;68277;52.724;6.516;2023-05-23T08:04:04;9.07;;;2.13;;
78670;SDS011;68277;52.724;6.516;2023-05-23T08:06:39;9.57;;;2.22;;
78670;SDS011;68277;52.724;6.516;2023-05-23T08:09:07;5.55;;;1.55;;
78670;SDS011;68277;52.724;6.516;2023-05-23T08:11:38;10.80;;;2.00;;
78670;SDS011;68277;52.724;6.516;2023-05-23T08:14:04;4.43;;;1.85;;
78670;SDS011;68277;52.724;6.516;2023-05-23T08:16:36;11.70;;;2.05;;
78670;SDS011;68277;52.724;6.516;2023-05-23T08:19:03;7.30;;;1.60;;
78670;SDS011;68277;52.724;6.516;2023-05-23T08:21:29;4.85;;;1.50;;
78670;SDS011;68277;52.724;6.516;2023-05-23T08:23:54;3.72;;;1.38;;
78670;SDS011;68277;52.724;6.516;2023-05-23T08:26:20;4.85;;;1.40;;
78670;SDS011;68277;52.724;6.516;2023-05-23T08:31:12;5.32;;;2.03;;
78670;SDS011;68277;52.724;6.516;2023-05-23T08:33:37;8.63;;;2.22;;
78670;SDS011;68277;52.724;6.516;2023-05-23T08:36:03;8.20;;;1.95;;
78670;SDS011;68277;52.724;6.516;2023-05-23T08:38:28;6.32;;;1.88;;
78670;SDS011;68277;52.724;6.516;2023-05-23T08:41:02;6.25;;;1.98;;
78670;SDS011;68277;52.724;6.516;2023-05-23T08:43:34;10.30;;;1.98;;
78670;SDS011;68277;52.724;6.516;2023-05-23T08:46:00;5.57;;;1.42;;
78670;SDS011;68277;52.724;6.516;2023-05-23T08:48:29;6.80;;;1.50;;
78670;SDS011;68277;52.724;6.516;2023-05-23T08:50:56;5.07;;;1.77;;
78670;SDS011;68277;52.724;6.516;2023-05-23T08:55:57;4.80;;;1.35;;
78670;SDS011;68277;52.724;6.516;2023-05-23T08:58:30;6.97;;;2.00;;
78670;SDS011;68277;52.724;6.516;2023-05-23T09:00:58;6.43;;;1.48;;
78670;SDS011;68277;52.724;6.516;2023-05-23T09:03:25;5.30;;;1.35;;
78670;SDS011;68277;52.724;6.516;2023-05-23T09:06:14;9.15;;;2.03;;
78670;SDS011;68277;52.724;6.516;2023-05-23T09:08:40;10.57;;;2.60;;
78670;SDS011;68277;52.724;6.516;2023-05-23T09:11:07;14.75;;;2.28;;
78670;SDS011;68277;52.724;6.516;2023-05-23T09:13:36;8.00;;;1.80;;
78670;SDS011;68277;52.724;6.516;2023-05-23T09:16:05;8.02;;;2.35;;
78670;SDS011;68277;52.724;6.516;2023-05-23T09:18:39;14.05;;;2.67;;
78670;SDS011;68277;52.724;6.516;2023-05-23T09:21:13;8.10;;;1.75;;
78670;SDS011;68277;52.724;6.516;2023-05-23T09:23:48;5.20;;;1.95;;
78670;SDS011;68277;52.724;6.516;2023-05-23T09:26:14;5.00;;;1.63;;
78670;SDS011;68277;52.724;6.516;2023-05-23T09:28:41;9.90;;;1.77;;
78670;SDS011;68277;52.724;6.516;2023-05-23T09:31:07;8.93;;;2.47;;
78670;SDS011;68277;52.724;6.516;2023-05-23T09:33:47;11.82;;;2.08;;
78670;SDS011;68277;52.724;6.516;2023-05-23T09:36:16;6.30;;;1.92;;
78670;SDS011;68277;52.724;6.516;2023-05-23T09:38:45;14.15;;;1.95;;
78670;SDS011;68277;52.724;6.516;2023-05-23T09:41:13;14.15;;;1.80;;
78670;SDS011;68277;52.724;6.516;2023-05-23T09:43:39;7.28;;;1.70;;
78670;SDS011;68277;52.724;6.516;2023-05-23T09:46:14;9.02;;;2.17;;
78670;SDS011;68277;52.724;6.516;2023-05-23T09:48:44;4.07;;;1.73;;
78670;SDS011;68277;52.724;6.516;2023-05-23T09:51:11;4.35;;;1.40;;
78670;SDS011;68277;52.724;6.516;2023-05-23T09:53:36;14.52;;;4.63;;
78670;SDS011;68277;52.724;6.516;2023-05-23T09:56:02;7.47;;;2.00;;
78670;SDS011;68277;52.724;6.516;2023-05-23T09:58:28;9.70;;;2.08;;
78670;SDS011;68277;52.724;6.516;2023-05-23T10:00:55;7.10;;;1.55;;
78670;SDS011;68277;52.724;6.516;2023-05-23T10:03:30;7.30;;;1.77;;
78670;SDS011;68277;52.724;6.516;2023-05-23T10:05:59;3.90;;;1.30;;
78670;SDS011;68277;52.724;6.516;2023-05-23T10:08:33;10.75;;;2.55;;
78670;SDS011;68277;52.724;6.516;2023-05-23T10:13:38;7.22;;;1.70;;
78670;SDS011;68277;52.724;6.516;2023-05-23T10:16:26;4.82;;;1.75;;
78670;SDS011;68277;52.724;6.516;2023-05-23T10:18:59;3.88;;;1.58;;
78670;SDS011;68277;52.724;6.516;2023-05-23T10:21:37;7.57;;;1.90;;
78670;SDS011;68277;52.724;6.516;2023-05-23T10:24:08;6.40;;;1.75;;
78670;SDS011;68277;52.724;6.516;2023-05-23T10:26:36;5.85;;;1.73;;
78670;SDS011;68277;52.724;6.516;2023-05-23T10:29:01;9.88;;;1.52;;
78670;SDS011;68277;52.724;6.516;2023-05-23T10:31:27;8.15;;;2.05;;
78670;SDS011;68277;52.724;6.516;2023-05-23T10:36:52;5.53;;;1.60;;
78670;SDS011;68277;52.724;6.516;2023-05-23T10:42:20;6.30;;;1.58;;
78670;SDS011;68277;52.724;6.516;2023-05-23T10:45:12;7.43;;;2.00;;
78670;SDS011;68277;52.724;6.516;2023-05-23T10:47:50;7.57;;;1.50;;
78670;SDS011;68277;52.724;6.516;2023-05-23T10:50:30;4.70;;;1.58;;
78670;SDS011;68277;52.724;6.516;2023-05-23T10:53:03;10.30;;;1.98;;
78670;SDS011;68277;52.724;6.516;2023-05-23T10:55:33;5.25;;;1.50;;
78670;SDS011;68277;52.724;6.516;2023-05-23T11:00:58;6.13;;;1.35;;
78670;SDS011;68277;52.724;6.516;2023-05-23T11:03:33;10.23;;;1.67;;
78670;SDS011;68277;52.724;6.516;2023-05-23T11:06:00;3.72;;;1.25;;
78670;SDS011;68277;52.724;6.516;2023-05-23T11:08:27;10.98;;;2.35;;
78670;SDS011;68277;52.724;6.516;2023-05-23T11:11:02;4.20;;;1.55;;
78670;SDS011;68277;52.724;6.516;2023-05-23T11:16:23;9.77;;;2.03;;
78670;SDS011;68277;52.724;6.516;2023-05-23T11:18:50;9.48;;;1.58;;
78670;SDS011;68277;52.724;6.516;2023-05-23T11:21:15;3.67;;;1.40;;
78670;SDS011;68277;52.724;6.516;2023-05-23T11:23:41;6.00;;;1.58;;
78670;SDS011;68277;52.724;6.516;2023-05-23T11:28:55;5.88;;;1.48;;
78670;SDS011;68277;52.724;6.516;2023-05-23T11:31:22;5.25;;;1.50;;
78670;SDS011;68277;52.724;6.516;2023-05-23T11:33:51;4.53;;;2.38;;
78670;SDS011;68277;52.724;6.516;2023-05-23T11:36:17;3.42;;;1.30;;
78670;SDS011;68277;52.724;6.516;2023-05-23T11:38:42;3.83;;;1.38;;
78670;SDS011;68277;52.724;6.516;2023-05-23T11:41:12;3.35;;;1.13;;
78670;SDS011;68277;52.724;6.516;2023-05-23T11:43:39;5.85;;;1.45;;
78670;SDS011;68277;52.724;6.516;2023-05-23T11:46:14;5.20;;;1.30;;
78670;SDS011;68277;52.724;6.516;2023-05-23T11:48:43;8.07;;;1.77;;
78670;SDS011;68277;52.724;6.516;2023-05-23T11:51:12;12.68;;;1.98;;
78670;SDS011;68277;52.724;6.516;2023-05-23T11:53:37;6.35;;;1.60;;
78670;SDS011;68277;52.724;6.516;2023-05-23T11:56:03;6.10;;;1.65;;
78670;SDS011;68277;52.724;6.516;2023-05-23T11:58:29;9.63;;;1.58;;
78670;SDS011;68277;52.724;6.516;2023-05-23T12:01:05;6.88;;;1.80;;
78670;SDS011;68277;52.724;6.516;2023-05-23T12:03:33;3.25;;;1.33;;
78670;SDS011;68277;52.724;6.516;2023-05-23T12:05:59;7.07;;;1.30;;
78670;SDS011;68277;52.724;6.516;2023-05-23T12:08:26;4.07;;;1.45;;
78670;SDS011;68277;52.724;6.516;2023-05-23T12:10:52;5.50;;;1.30;;
78670;SDS011;68277;52.724;6.516;2023-05-23T12:13:22;5.90;;;1.33;;
78670;SDS011;68277;52.724;6.516;2023-05-23T12:15:51;7.28;;;1.50;;
78670;SDS011;68277;52.724;6.516;2023-05-23T12:18:21;3.22;;;1.33;;
78670;SDS011;68277;52.724;6.516;2023-05-23T12:20:50;8.38;;;1.95;;
78670;SDS011;68277;52.724;6.516;2023-05-23T12:23:20;3.50;;;1.08;;
78670;SDS011;68277;52.724;6.516;2023-05-23T12:25:52;5.88;;;1.70;;
78670;SDS011;68277;52.724;6.516;2023-05-23T12:28:19;6.80;;;1.63;;
78670;SDS011;68277;52.724;6.516;2023-05-23T12:30:46;7.20;;;1.63;;
78670;SDS011;68277;52.724;6.516;2023-05-23T12:33:11;9.43;;;1.77;;
78670;SDS011;68277;52.724;6.516;2023-05-23T12:35:41;5.97;;;1.83;;
78670;SDS011;68277;52.724;6.516;2023-05-23T12:38:07;4.90;;;1.35;;
78670;SDS011;68277;52.724;6.516;2023-05-23T12:40:32;9.32;;;1.85;;
78670;SDS011;68277;52.724;6.516;2023-05-23T12:42:58;7.63;;;1.70;;
78670;SDS011;68277;52.724;6.516;2023-05-23T12:45:31;9.00;;;1.67;;
78670;SDS011;68277;52.724;6.516;2023-05-23T12:47:58;2.70;;;1.63;;
78670;SDS011;68277;52.724;6.516;2023-05-23T12:50:24;8.02;;;1.58;;
78670;SDS011;68277;52.724;6.516;2023-05-23T12:52:50;5.55;;;1.25;;
78670;SDS011;68277;52.724;6.516;2023-05-23T12:55:16;2.83;;;1.20;;
78670;SDS011;68277;52.724;6.516;2023-05-23T12:57:41;5.55;;;1.17;;
78670;SDS011;68277;52.724;6.516;2023-05-23T13:00:07;4.68;;;1.42;;
78670;SDS011;68277;52.724;6.516;2023-05-23T13:02:33;6.93;;;1.40;;
78670;SDS011;68277;52.724;6.516;2023-05-23T13:04:59;5.72;;;1.40;;
78670;SDS011;68277;52.724;6.516;2023-05-23T13:07:25;9.02;;;1.73;;
78670;SDS011;68277;52.724;6.516;2023-05-23T13:09:50;6.25;;;1.60;;
78670;SDS011;68277;52.724;6.516;2023-05-23T13:12:16;11.15;;;1.77;;
78670;SDS011;68277;52.724;6.516;2023-05-23T13:14:41;5.22;;;1.10;;
78670;SDS011;68277;52.724;6.516;2023-05-23T13:17:07;3.22;;;1.00;;
78670;SDS011;68277;52.724;6.516;2023-05-23T13:19:33;3.60;;;1.50;;
78670;SDS011;68277;52.724;6.516;2023-05-23T13:21:59;5.28;;;1.80;;
78670;SDS011;68277;52.724;6.516;2023-05-23T13:24:25;3.47;;;1.25;;
78670;SDS011;68277;52.724;6.516;2023-05-23T13:26:51;5.50;;;1.73;;
78670;SDS011;68277;52.724;6.516;2023-05-23T13:29:17;4.07;;;2.13;;
78670;SDS011;68277;52.724;6.516;2023-05-23T13:31:42;11.32;;;1.63;;
78670;SDS011;68277;52.724;6.516;2023-05-23T13:34:08;8.57;;;1.20;;
78670;SDS011;68277;52.724;6.516;2023-05-23T13:36:33;3.45;;;1.00;;
78670;SDS011;68277;52.724;6.516;2023-05-23T13:39:03;3.00;;;1.17;;
78670;SDS011;68277;52.724;6.516;2023-05-23T13:41:29;2.78;;;0.95;;
78670;SDS011;68277;52.724;6.516;2023-05-23T13:43:55;3.30;;;1.25;;
78670;SDS011;68277;52.724;6.516;2023-05-23T13:46:20;4.00;;;1.15;;
78670;SDS011;68277;52.724;6.516;2023-05-23T13:48:47;3.17;;;1.23;;
78670;SDS011;68277;52.724;6.516;2023-05-23T13:51:12;8.23;;;1.35;;
78670;SDS011;68277;52.724;6.516;2023-05-23T13:53:37;3.00;;;1.10;;
78670;SDS011;68277;52.724;6.516;2023-05-23T13:56:03;5.03;;;1.88;;
78670;SDS011;68277;52.724;6.516;2023-05-23T13:58:28;3.63;;;1.17;;
78670;SDS011;68277;52.724;6.516;2023-05-23T14:00:54;5.97;;;1.33;;
78670;SDS011;68277;52.724;6.516;2023-05-23T14:03:19;11.02;;;1.73;;
78670;SDS011;68277;52.724;6.516;2023-05-23T14:05:45;6.18;;;1.65;;
78670;SDS011;68277;52.724;6.516;2023-05-23T14:08:10;5.28;;;1.95;;
78670;SDS011;68277;52.724;6.516;2023-05-23T14:10:38;4.45;;;1.25;;
78670;SDS011;68277;52.724;6.516;2023-05-23T14:13:04;1.77;;;0.77;;
78670;SDS011;68277;52.724;6.516;2023-05-23T14:15:31;4.28;;;1.15;;
78670;SDS011;68277;52.724;6.516;2023-05-23T14:17:56;4.18;;;1.40;;
78670;SDS011;68277;52.724;6.516;2023-05-23T14:20:21;3.88;;;1.30;;
78670;SDS011;68277;52.724;6.516;2023-05-23T14:22:48;5.97;;;1.40;;
78670;SDS011;68277;52.724;6.516;2023-05-23T14:27:40;6.57;;;1.88;;
78670;SDS011;68277;52.724;6.516;2023-05-23T14:30:06;2.65;;;0.88;;
78670;SDS011;68277;52.724;6.516;2023-05-23T14:32:32;5.30;;;1.58;;
78670;SDS011;68277;52.724;6.516;2023-05-23T14:35:03;5.60;;;1.98;;
78670;SDS011;68277;52.724;6.516;2023-05-23T14:37:32;6.28;;;1.30;;
78670;SDS011;68277;52.724;6.516;2023-05-23T14:39:57;6.68;;;1.80;;
78670;SDS011;68277;52.724;6.516;2023-05-23T14:42:23;5.40;;;0.95;;
78670;SDS011;68277;52.724;6.516;2023-05-23T14:44:48;5.18;;;1.10;;
78670;SDS011;68277;52.724;6.516;2023-05-23T14:47:14;4.50;;;0.95;;
78670;SDS011;68277;52.724;6.516;2023-05-23T14:49:39;7.05;;;1.73;;
78670;SDS011;68277;52.724;6.516;2023-05-23T14:52:05;10.32;;;2.13;;
78670;SDS011;68277;52.724;6.516;2023-05-23T14:54:30;4.65;;;1.45;;
78670;SDS011;68277;52.724;6.516;2023-05-23T14:56:56;6.10;;;1.58;;
78670;SDS011;68277;52.724;6.516;2023-05-23T14:59:21;2.75;;;1.40;;
78670;SDS011;68277;52.724;6.516;2023-05-23T15:01:47;4.40;;;1.25;;
78670;SDS011;68277;52.724;6.516;2023-05-23T15:04:13;5.75;;;1.40;;
78670;SDS011;68277;52.724;6.516;2023-05-23T15:06:38;4.60;;;1.10;;
78670;SDS011;68277;52.724;6.516;2023-05-23T15:09:05;9.05;;;1.52;;
78670;SDS011;68277;52.724;6.516;2023-05-23T15:11:31;3.33;;;0.90;;
78670;SDS011;68277;52.724;6.516;2023-05-23T15:13:59;3.40;;;1.33;;
78670;SDS011;68277;52.724;6.516;2023-05-23T15:16:25;3.58;;;1.00;;
78670;SDS011;68277;52.724;6.516;2023-05-23T15:18:51;4.25;;;0.93;;
78670;SDS011;68277;52.724;6.516;2023-05-23T15:21:16;4.53;;;1.10;;
78670;SDS011;68277;52.724;6.516;2023-05-23T15:23:42;7.18;;;1.20;;
78670;SDS011;68277;52.724;6.516;2023-05-23T15:26:07;4.93;;;1.02;;
78670;SDS011;68277;52.724;6.516;2023-05-23T15:28:33;2.50;;;1.08;;
78670;SDS011;68277;52.724;6.516;2023-05-23T15:30:58;2.78;;;1.15;;